Ashville, Pennsylvania
Current Conditions -  °F | °C
As of 10:53 PM on Saturday 24 Jan 2015 (Local Time) from KAOO Reporting Station
Overcast Overcast  
Wind Chill: 19°   Ceiling: 1400
Heat Index: 30°   Visibility: 10mi
Dew Point: 26°   Wind: 16mph
Humidity: 85%   Direction: 280°W
Pressure: 29.61"   Gusts: 23mph
Location:  40.56°N, 78.55°W
Report Text: KAOO 250353Z AUTO 28014G20KT 10SM OVC014 M01/M03 A2961 RMK AO2 PK WND 27026/0315 SLP041 T10111033
Loading
Personal Weather Stations






























Interactive Weather Map New forecast layout! Learn more

10-Day Weather Forecast

Advertisements
Track Severe Weather on mobile